Saturday, March 25, 2017

  Over 48,494,314 pages visited!

GMT:
15:36
PACIFIC:
8:36:13 AM
MOUNTAIN:
9:36:13 AM

CENTRAL:
10:36:13 AM

EASTERN:
11:36:13 AM
ATLANTIC:
12:36:13 PM
NEWFOUNDLAND:
1:06:13 PM
 

 


Watches/Warnings
Current Conditions
Radar/Satellite
Lightning Images


Current Weather Conditions For TORONTO PEARSON,ON

 


Light Rain
 

Temperature: 02�C / 36�F
Dew Point: 01 �C / 34�F
Humidity: 93 %
Pressure: 1027.3 mbs (30.33 inches)
Visibility: 12.9 kms (8 SM)
Wind Direction: NE (060�)
Wind Speed: 11.1 Km/h (6.9 MPH)
Max Wind Gust: No Gusts
Humidex: N/A
WindChill: -1�C
    

Observation Information

Date/Time: Saturday, March 25, 2017 @ 15:00Z
Local Time:
Metar Coded: CYYZ 251500Z 06006KT 8SM -RA SCT009 OVC012 02/01 A3031 RMK SF4SF4 SLP273

 

 

                   1997-2017 The Ontario Weather Page